^^
Saratoga-Weather Station Historical Data
Daily Summary for September 23, 2022 Units:  Both    English   Metric
Daily Weekly Monthly Yearly Custom
  High: Low: Average:
Temperature: 65.7 °F /  18.7 °C 41.7 °F /  5.4 °C 53.2 °F /  11.8 °C
Dew Point: 50.4 °F /  10.2 °C 39.7 °F /  4.3 °C 45.1 °F /  7.3 °C
Humidity: 95% 51% 76%
Wind Speed: 4mph /  6.4km/h - 0.5mph /  0.8km/h
Wind Gust: 6mph /  9.7km/h - -
Wind- - SSE
Pressure: 30.1 in /  1018.3 hPa 29.9 in /  1013.5 hPa -
Precipitation: 0 in /  0.0 mm    
Historical Graphs
 
 
Tabular Data for September 23, 2022
Time Temperature Dew Point Pressure Wind Wind Speed Wind Gust Humidity Rainfall Rate (Hourly) solar
00:04 47.7 °F /  8.7 °C 42.8 °F /  6 °C 30.1in /  1018.3hPa Calm     83% 0in /  0.0mm 0 W/m2
00:09 47.5 °F /  8.6 °C 42.6 °F /  5.9 °C 30.1in /  1018.3hPa Calm     83% 0in /  0.0mm 0 W/m2
00:14 47.1 °F /  8.4 °C 42.6 °F /  5.9 °C 30.1in /  1018.3hPa Calm     84% 0in /  0.0mm 0 W/m2
00:19 47.1 °F /  8.4 °C 42.6 °F /  5.9 °C 30.1in /  1018.3hPa Calm     84% 0in /  0.0mm 0 W/m2
00:24 46.9 °F /  8.3 °C 42.4 °F /  5.8 °C 30.1in /  1018.3hPa Calm     84% 0in /  0.0mm 0 W/m2
00:29 46.8 °F /  8.2 °C 42.4 °F /  5.8 °C 30.1in /  1018.3hPa Calm     85% 0in /  0.0mm 0 W/m2
00:34 46.8 °F /  8.2 °C 42.4 °F /  5.8 °C 30.1in /  1018.3hPa Calm     85% 0in /  0.0mm 0 W/m2
00:39 46.8 °F /  8.2 °C 42.4 °F /  5.8 °C 30.1in /  1018.3hPa Calm     85% 0in /  0.0mm 0 W/m2
00:44 46.6 °F /  8.1 °C 42.3 °F /  5.7 °C 30.1in /  1018.3hPa Calm     85% 0in /  0.0mm 0 W/m2
00:49 46.6 °F /  8.1 °C 42.3 °F /  5.7 °C 30.1in /  1018.3hPa Calm     85% 0in /  0.0mm 0 W/m2
00:54 46.4 °F /  8 °C 42.4 °F /  5.8 °C 30.1in /  1018.3hPa Calm     86% 0in /  0.0mm 0 W/m2
00:59 46.4 °F /  8 °C 42.4 °F /  5.8 °C 30.1in /  1018.3hPa Calm     86% 0in /  0.0mm 0 W/m2
01:04 46.4 °F /  8 °C 42.4 °F /  5.8 °C 30.1in /  1018.0hPa Calm     86% 0in /  0.0mm 0 W/m2
01:09 46.4 °F /  8 °C 42.4 °F /  5.8 °C 30.1in /  1018.0hPa Calm     86% 0in /  0.0mm 0 W/m2
01:14 46.4 °F /  8 °C 42.4 °F /  5.8 °C 30.1in /  1018.0hPa Calm     86% 0in /  0.0mm 0 W/m2
01:19 46.4 °F /  8 °C 42.4 °F /  5.8 °C 30.1in /  1018.0hPa Calm     86% 0in /  0.0mm 0 W/m2
01:24 46.4 °F /  8 °C 42.4 °F /  5.8 °C 30.1in /  1018.0hPa Calm     86% 0in /  0.0mm 0 W/m2
01:29 46.4 °F /  8 °C 42.4 °F /  5.8 °C 30.1in /  1018.0hPa Calm     86% 0in /  0.0mm 0 W/m2
01:34 46.2 °F /  7.9 °C 42.6 °F /  5.9 °C 30.1in /  1018.0hPa Calm     87% 0in /  0.0mm 0 W/m2
01:39 46.2 °F /  7.9 °C 42.6 °F /  5.9 °C 30.1in /  1018.0hPa Calm     87% 0in /  0.0mm 0 W/m2
01:44 46 °F /  7.8 °C 42.4 °F /  5.8 °C 30.1in /  1018.0hPa Calm     87% 0in /  0.0mm 0 W/m2
01:49 46 °F /  7.8 °C 42.4 °F /  5.8 °C 30.1in /  1018.0hPa Calm     87% 0in /  0.0mm 0 W/m2
01:54 46 °F /  7.8 °C 42.4 °F /  5.8 °C 30.1in /  1018.0hPa Calm     87% 0in /  0.0mm 0 W/m2
01:59 46 °F /  7.8 °C 42.4 °F /  5.8 °C 30.1in /  1018.0hPa Calm     87% 0in /  0.0mm 0 W/m2
02:04 45.9 °F /  7.7 °C 42.4 °F /  5.8 °C 30.1in /  1018.0hPa Calm     88% 0in /  0.0mm 0 W/m2
02:09 45.9 °F /  7.7 °C 42.3 °F /  5.7 °C 30.1in /  1018.0hPa Calm     87% 0in /  0.0mm 0 W/m2
02:14 45.9 °F /  7.7 °C 42.3 °F /  5.7 °C 30.1in /  1018.0hPa Calm     87% 0in /  0.0mm 0 W/m2
02:19 45.7 °F /  7.6 °C 42.1 °F /  5.6 °C 30.1in /  1017.6hPa Calm     87% 0in /  0.0mm 0 W/m2
02:24 45.5 °F /  7.5 °C 42.1 °F /  5.6 °C 30.1in /  1017.6hPa Calm     88% 0in /  0.0mm 0 W/m2
02:29 45.5 °F /  7.5 °C 42.1 °F /  5.6 °C 30.1in /  1017.6hPa Calm     88% 0in /  0.0mm 0 W/m2
02:34 45.3 °F /  7.4 °C 41.9 °F /  5.5 °C 30.1in /  1017.6hPa Calm     88% 0in /  0.0mm 0 W/m2
02:39 45.3 °F /  7.4 °C 41.9 °F /  5.5 °C 30.1in /  1017.6hPa Calm     88% 0in /  0.0mm 0 W/m2
02:44 45.3 °F /  7.4 °C 41.9 °F /  5.5 °C 30.1in /  1017.6hPa Calm     88% 0in /  0.0mm 0 W/m2
02:49 45.3 °F /  7.4 °C 41.9 °F /  5.5 °C 30.1in /  1017.6hPa Calm     88% 0in /  0.0mm 0 W/m2
02:54 45.3 °F /  7.4 °C 41.9 °F /  5.5 °C 30.1in /  1017.6hPa Calm     88% 0in /  0.0mm 0 W/m2
02:59 45.3 °F /  7.4 °C 41.9 °F /  5.5 °C 30.1in /  1017.6hPa Calm     88% 0in /  0.0mm 0 W/m2
03:04 45.1 °F /  7.3 °C 41.7 °F /  5.4 °C 30.1in /  1017.6hPa Calm     88% 0in /  0.0mm 0 W/m2
03:09 45.1 °F /  7.3 °C 41.7 °F /  5.4 °C 30.1in /  1017.6hPa Calm     88% 0in /  0.0mm 0 W/m2
03:14 45 °F /  7.2 °C 41.5 °F /  5.3 °C 30.1in /  1017.6hPa Calm     88% 0in /  0.0mm 0 W/m2
03:19 45 °F /  7.2 °C 41.5 °F /  5.3 °C 30.1in /  1017.6hPa Calm     88% 0in /  0.0mm 0 W/m2
03:24 44.8 °F /  7.1 °C 41.4 °F /  5.2 °C 30.1in /  1017.6hPa Calm     88% 0in /  0.0mm 0 W/m2
03:29 44.8 °F /  7.1 °C 41.4 °F /  5.2 °C 30in /  1017.3hPa Calm     88% 0in /  0.0mm 0 W/m2
03:34 44.6 °F /  7 °C 41.2 °F /  5.1 °C 30in /  1017.3hPa Calm     88% 0in /  0.0mm 0 W/m2
03:39 44.4 °F /  6.9 °C 41.4 °F /  5.2 °C 30in /  1017.3hPa Calm     89% 0in /  0.0mm 0 W/m2
03:44 44.4 °F /  6.9 °C 41.2 °F /  5.1 °C 30in /  1017.3hPa Calm     88% 0in /  0.0mm 0 W/m2
03:49 44.2 °F /  6.8 °C 41.2 °F /  5.1 °C 30in /  1017.3hPa Calm     89% 0in /  0.0mm 0 W/m2
03:54 44.1 °F /  6.7 °C 41 °F /  5 °C 30in /  1017.3hPa Calm     89% 0in /  0.0mm 0 W/m2
03:59 44.1 °F /  6.7 °C 41 °F /  5 °C 30in /  1017.3hPa Calm     89% 0in /  0.0mm 0 W/m2
04:04 43.9 °F /  6.6 °C 40.8 °F /  4.9 °C 30in /  1017.3hPa Calm     89% 0in /  0.0mm 0 W/m2
04:09 43.9 °F /  6.6 °C 40.8 °F /  4.9 °C 30in /  1017.3hPa Calm     89% 0in /  0.0mm 0 W/m2
04:14 43.9 °F /  6.6 °C 40.8 °F /  4.9 °C 30in /  1017.3hPa Calm     89% 0in /  0.0mm 0 W/m2
04:19 43.7 °F /  6.5 °C 41 °F /  5 °C 30in /  1017.3hPa Calm     90% 0in /  0.0mm 0 W/m2
04:24 43.5 °F /  6.4 °C 40.8 °F /  4.9 °C 30in /  1017.3hPa Calm     90% 0in /  0.0mm 0 W/m2
04:29 43.5 °F /  6.4 °C 40.8 °F /  4.9 °C 30in /  1017.3hPa Calm     90% 0in /  0.0mm 0 W/m2
04:34 43.3 °F /  6.3 °C 40.6 °F /  4.8 °C 30in /  1017.3hPa Calm     90% 0in /  0.0mm 0 W/m2
04:39 43.3 °F /  6.3 °C 40.6 °F /  4.8 °C 30in /  1017.3hPa Calm     90% 0in /  0.0mm 0 W/m2
04:44 43.3 °F /  6.3 °C 40.6 °F /  4.8 °C 30in /  1017.3hPa Calm     90% 0in /  0.0mm 0 W/m2
04:49 43.3 °F /  6.3 °C 40.6 °F /  4.8 °C 30in /  1017.3hPa Calm     90% 0in /  0.0mm 0 W/m2
04:54 43.2 °F /  6.2 °C 40.5 °F /  4.7 °C 30in /  1017.3hPa Calm     90% 0in /  0.0mm 0 W/m2
04:59 43.2 °F /  6.2 °C 40.5 °F /  4.7 °C 30in /  1017.3hPa Calm     90% 0in /  0.0mm 0 W/m2
05:04 43.2 °F /  6.2 °C 40.5 °F /  4.7 °C 30in /  1016.9hPa Calm     90% 0in /  0.0mm 0 W/m2
05:09 43.2 °F /  6.2 °C 40.5 °F /  4.7 °C 30in /  1016.9hPa Calm     90% 0in /  0.0mm 0 W/m2
05:14 43.2 °F /  6.2 °C 40.6 °F /  4.8 °C 30in /  1016.9hPa Calm     91% 0in /  0.0mm 0 W/m2
05:19 43 °F /  6.1 °C 40.5 °F /  4.7 °C 30in /  1016.9hPa Calm     91% 0in /  0.0mm 0 W/m2
05:25 43 °F /  6.1 °C 40.5 °F /  4.7 °C 30in /  1016.9hPa Calm     91% 0in /  0.0mm 0 W/m2
05:30 43 °F /  6.1 °C 40.5 °F /  4.7 °C 30in /  1016.9hPa Calm     91% 0in /  0.0mm 0 W/m2
05:35 42.8 °F /  6 °C 40.3 °F /  4.6 °C 30in /  1016.9hPa Calm     91% 0in /  0.0mm 0 W/m2
05:40 43 °F /  6.1 °C 40.5 °F /  4.7 °C 30in /  1016.9hPa Calm     91% 0in /  0.0mm 0 W/m2
05:45 43 °F /  6.1 °C 40.5 °F /  4.7 °C 30in /  1016.9hPa Calm     91% 0in /  0.0mm 0 W/m2
05:50 42.8 °F /  6 °C 40.3 °F /  4.6 °C 30in /  1016.9hPa Calm     91% 0in /  0.0mm 0 W/m2
05:55 42.8 °F /  6 °C 40.3 °F /  4.6 °C 30in /  1016.9hPa Calm     91% 0in /  0.0mm 0 W/m2
06:00 42.6 °F /  5.9 °C 40.5 °F /  4.7 °C 30in /  1016.9hPa Calm     92% 0in /  0.0mm 0 W/m2
06:05 42.6 °F /  5.9 °C 40.5 °F /  4.7 °C 30in /  1016.9hPa Calm     92% 0in /  0.0mm 0 W/m2
06:10 42.6 °F /  5.9 °C 40.5 °F /  4.7 °C 30in /  1016.9hPa Calm     92% 0in /  0.0mm 0 W/m2
06:15 42.6 °F /  5.9 °C 40.5 °F /  4.7 °C 30in /  1016.9hPa Calm     92% 0in /  0.0mm 0 W/m2
06:20 42.6 °F /  5.9 °C 40.5 °F /  4.7 °C 30in /  1016.9hPa Calm     92% 0in /  0.0mm 0 W/m2
06:25 42.4 °F /  5.8 °C 40.3 °F /  4.6 °C 30in /  1016.9hPa Calm     92% 0in /  0.0mm 0 W/m2
06:30 42.4 °F /  5.8 °C 40.3 °F /  4.6 °C 30in /  1016.9hPa Calm     92% 0in /  0.0mm 0 W/m2
06:35 42.3 °F /  5.7 °C 40.1 °F /  4.5 °C 30in /  1016.9hPa Calm     92% 0in /  0.0mm 0 W/m2
06:40 42.3 °F /  5.7 °C 40.1 °F /  4.5 °C 30in /  1016.9hPa Calm     92% 0in /  0.0mm 0 W/m2
06:45 42.1 °F /  5.6 °C 39.9 °F /  4.4 °C 30in /  1016.9hPa Calm     92% 0in /  0.0mm 0 W/m2
06:50 42.1 °F /  5.6 °C 39.9 °F /  4.4 °C 30in /  1016.9hPa Calm     92% 0in /  0.0mm 0 W/m2
06:55 42.1 °F /  5.6 °C 39.9 °F /  4.4 °C 30in /  1016.9hPa Calm     92% 0in /  0.0mm 0 W/m2
07:00 41.9 °F /  5.5 °C 39.7 °F /  4.3 °C 30in /  1016.9hPa Calm     92% 0in /  0.0mm 0 W/m2
07:05 41.9 °F /  5.5 °C 39.7 °F /  4.3 °C 30in /  1016.9hPa Calm     92% 0in /  0.0mm 0 W/m2
07:10 41.9 °F /  5.5 °C 39.7 °F /  4.3 °C 30in /  1016.9hPa Calm     92% 0in /  0.0mm 0 W/m2
07:15 41.9 °F /  5.5 °C 40.1 °F /  4.5 °C 30in /  1016.9hPa Calm     93% 0in /  0.0mm 0 W/m2
07:20 41.7 °F /  5.4 °C 39.9 °F /  4.4 °C 30in /  1016.9hPa Calm     93% 0in /  0.0mm 0 W/m2
07:25 41.9 °F /  5.5 °C 40.1 °F /  4.5 °C 30in /  1016.9hPa Calm     93% 0in /  0.0mm 0 W/m2
07:30 41.7 °F /  5.4 °C 39.9 °F /  4.4 °C 30in /  1016.9hPa Calm     93% 0in /  0.0mm 0 W/m2
07:35 41.7 °F /  5.4 °C 39.9 °F /  4.4 °C 30in /  1016.9hPa Calm     93% 0in /  0.0mm 5 W/m2
07:40 41.9 °F /  5.5 °C 40.1 °F /  4.5 °C 30in /  1016.9hPa Calm     93% 0in /  0.0mm 7 W/m2
07:45 41.7 °F /  5.4 °C 39.9 °F /  4.4 °C 30in /  1016.9hPa Calm     93% 0in /  0.0mm 9 W/m2
07:50 41.7 °F /  5.4 °C 39.9 °F /  4.4 °C 30in /  1016.9hPa Calm     93% 0in /  0.0mm 11 W/m2
07:55 41.7 °F /  5.4 °C 39.9 °F /  4.4 °C 30in /  1016.9hPa Calm     93% 0in /  0.0mm 12 W/m2
08:00 41.7 °F /  5.4 °C 39.9 °F /  4.4 °C 30in /  1016.9hPa Calm     93% 0in /  0.0mm 14 W/m2
08:05 41.7 °F /  5.4 °C 39.9 °F /  4.4 °C 30in /  1016.9hPa Calm     93% 0in /  0.0mm 16 W/m2
08:10 41.7 °F /  5.4 °C 39.9 °F /  4.4 °C 30in /  1016.9hPa Calm     93% 0in /  0.0mm 18 W/m2
08:15 41.7 °F /  5.4 °C 39.9 °F /  4.4 °C 30in /  1016.9hPa Calm     93% 0in /  0.0mm 19 W/m2
08:20 42.1 °F /  5.6 °C 40.5 °F /  4.7 °C 30in /  1016.9hPa Calm     94% 0in /  0.0mm 21 W/m2
08:25 42.1 °F /  5.6 °C 40.5 °F /  4.7 °C 30in /  1016.9hPa Calm     94% 0in /  0.0mm 23 W/m2
08:30 42.1 °F /  5.6 °C 40.5 °F /  4.7 °C 30in /  1016.9hPa Calm     94% 0in /  0.0mm 25 W/m2
08:35 42.3 °F /  5.7 °C 40.6 °F /  4.8 °C 30in /  1016.9hPa Calm     94% 0in /  0.0mm 26 W/m2
08:40 42.4 °F /  5.8 °C 40.8 °F /  4.9 °C 30in /  1016.9hPa Calm     94% 0in /  0.0mm 28 W/m2
08:45 42.4 °F /  5.8 °C 40.8 °F /  4.9 °C 30in /  1017.3hPa Calm     94% 0in /  0.0mm 32 W/m2
08:50 42.6 °F /  5.9 °C 41 °F /  5 °C 30in /  1016.9hPa Calm     94% 0in /  0.0mm 32 W/m2
08:55 42.8 °F /  6 °C 41.2 °F /  5.1 °C 30in /  1017.3hPa Calm     94% 0in /  0.0mm 33 W/m2
09:00 43 °F /  6.1 °C 41.4 °F /  5.2 °C 30in /  1017.3hPa Calm     94% 0in /  0.0mm 37 W/m2
09:05 43.2 °F /  6.2 °C 41.5 °F /  5.3 °C 30in /  1017.3hPa Calm     94% 0in /  0.0mm 88 W/m2
09:10 43.3 °F /  6.3 °C 41.7 °F /  5.4 °C 30in /  1017.3hPa Calm     94% 0in /  0.0mm 148 W/m2
09:15 43.9 °F /  6.6 °C 42.6 °F /  5.9 °C 30in /  1017.3hPa East 2mph /  3.2km/h 3mph /  4.8km/h 95% 0in /  0.0mm 216 W/m2
09:20 44.4 °F /  6.9 °C 43.2 °F /  6.2 °C 30in /  1017.3hPa ENE 0.9mph /  1.4km/h 1mph /  1.6km/h 95% 0in /  0.0mm 232 W/m2
09:25 45.1 °F /  7.3 °C 43.5 °F /  6.4 °C 30in /  1016.9hPa Calm   2mph /  3.2km/h 94% 0in /  0.0mm 227 W/m2
09:30 45.9 °F /  7.7 °C 43.9 °F /  6.6 °C 30in /  1017.3hPa NE 0.9mph /  1.4km/h 2mph /  3.2km/h 93% 0in /  0.0mm 171 W/m2
09:35 46.2 °F /  7.9 °C 44.1 °F /  6.7 °C 30in /  1017.3hPa Calm   1mph /  1.6km/h 92% 0in /  0.0mm 83 W/m2
09:40 46.9 °F /  8.3 °C 44.2 °F /  6.8 °C 30in /  1017.3hPa Calm     90% 0in /  0.0mm 74 W/m2
09:45 47.7 °F /  8.7 °C 44.6 °F /  7 °C 30in /  1017.3hPa NE 0.9mph /  1.4km/h 2mph /  3.2km/h 89% 0in /  0.0mm 86 W/m2
09:50 48.6 °F /  9.2 °C 44.8 °F /  7.1 °C 30in /  1017.3hPa NE 0.9mph /  1.4km/h 2mph /  3.2km/h 87% 0in /  0.0mm 151 W/m2
09:55 48.9 °F /  9.4 °C 45 °F /  7.2 °C 30in /  1017.3hPa ENE 2mph /  3.2km/h 2mph /  3.2km/h 86% 0in /  0.0mm 309 W/m2
10:00 49.6 °F /  9.8 °C 45 °F /  7.2 °C 30in /  1017.3hPa ENE 0.9mph /  1.4km/h 1mph /  1.6km/h 84% 0in /  0.0mm 306 W/m2
10:05 50.4 °F /  10.2 °C 45.7 °F /  7.6 °C 30in /  1017.3hPa ENE 0.9mph /  1.4km/h 1mph /  1.6km/h 84% 0in /  0.0mm 308 W/m2
10:10 50.9 °F /  10.5 °C 45.7 °F /  7.6 °C 30in /  1017.3hPa ENE 0.9mph /  1.4km/h   82% 0in /  0.0mm 302 W/m2
10:15 51.3 °F /  10.7 °C 45.7 °F /  7.6 °C 30in /  1017.3hPa ENE 0.9mph /  1.4km/h   81% 0in /  0.0mm 332 W/m2
10:20 51.3 °F /  10.7 °C 45.7 °F /  7.6 °C 30in /  1017.3hPa Calm     81% 0in /  0.0mm 332 W/m2
10:25 51.3 °F /  10.7 °C 45.7 °F /  7.6 °C 30in /  1017.3hPa Calm     81% 0in /  0.0mm 332 W/m2
10:30 52.3 °F /  11.3 °C 46 °F /  7.8 °C 30in /  1017.3hPa Calm   3mph /  4.8km/h 79% 0in /  0.0mm 387 W/m2
10:35 53.1 °F /  11.7 °C 46.8 °F /  8.2 °C 30in /  1016.9hPa East 2.9mph /  4.7km/h 3mph /  4.8km/h 79% 0in /  0.0mm 364 W/m2
10:40 53.2 °F /  11.8 °C 46.2 °F /  7.9 °C 30in /  1016.9hPa ENE 2.9mph /  4.7km/h 4mph /  6.4km/h 77% 0in /  0.0mm 369 W/m2
10:45 53.8 °F /  12.1 °C 46.8 °F /  8.2 °C 30in /  1016.9hPa Calm   3mph /  4.8km/h 77% 0in /  0.0mm 394 W/m2
10:50 54.1 °F /  12.3 °C 47.1 °F /  8.4 °C 30in /  1016.9hPa East 2mph /  3.2km/h 2mph /  3.2km/h 77% 0in /  0.0mm 434 W/m2
10:55 54.9 °F /  12.7 °C 47.5 °F /  8.6 °C 30in /  1016.9hPa ESE 0.9mph /  1.4km/h 4mph /  6.4km/h 76% 0in /  0.0mm 446 W/m2
11:00 55 °F /  12.8 °C 47.3 °F /  8.5 °C 30in /  1016.9hPa ENE 2mph /  3.2km/h 3mph /  4.8km/h 75% 0in /  0.0mm 429 W/m2
11:05 55.6 °F /  13.1 °C 47.5 °F /  8.6 °C 30in /  1016.9hPa Calm   3mph /  4.8km/h 74% 0in /  0.0mm 410 W/m2
11:10 55.9 °F /  13.3 °C 47.5 °F /  8.6 °C 30in /  1016.9hPa SE 2mph /  3.2km/h 3mph /  4.8km/h 73% 0in /  0.0mm 343 W/m2
11:15 56.5 °F /  13.6 °C 48 °F /  8.9 °C 30in /  1016.9hPa East 0.9mph /  1.4km/h 2mph /  3.2km/h 73% 0in /  0.0mm 367 W/m2
11:20 56.7 °F /  13.7 °C 47.7 °F /  8.7 °C 30in /  1016.9hPa NE 2mph /  3.2km/h 4mph /  6.4km/h 72% 0in /  0.0mm 381 W/m2
11:25 56.7 °F /  13.7 °C 47.7 °F /  8.7 °C 30in /  1016.9hPa NE 0.9mph /  1.4km/h 3mph /  4.8km/h 72% 0in /  0.0mm 294 W/m2
11:30 57 °F /  13.9 °C 47.7 °F /  8.7 °C 30in /  1016.9hPa Calm   4mph /  6.4km/h 71% 0in /  0.0mm 216 W/m2
11:35 57.4 °F /  14.1 °C 48 °F /  8.9 °C 30in /  1016.9hPa Calm   2mph /  3.2km/h 71% 0in /  0.0mm 207 W/m2
11:40 57.4 °F /  14.1 °C 47.7 °F /  8.7 °C 30in /  1016.9hPa NE 4mph /  6.4km/h 4mph /  6.4km/h 70% 0in /  0.0mm 197 W/m2
11:45 57.4 °F /  14.1 °C 48 °F /  8.9 °C 30in /  1016.9hPa ENE 2.9mph /  4.7km/h 3mph /  4.8km/h 71% 0in /  0.0mm 174 W/m2
11:50 57.6 °F /  14.2 °C 47.8 °F /  8.8 °C 30in /  1016.9hPa ENE 2mph /  3.2km/h 4mph /  6.4km/h 70% 0in /  0.0mm 151 W/m2
11:55 58.3 °F /  14.6 °C 48.6 °F /  9.2 °C 30in /  1016.9hPa ENE 2mph /  3.2km/h 3mph /  4.8km/h 70% 0in /  0.0mm 137 W/m2
12:00 58.6 °F /  14.8 °C 48.9 °F /  9.4 °C 30in /  1016.9hPa East 2mph /  3.2km/h 3mph /  4.8km/h 70% 0in /  0.0mm 139 W/m2
12:05 59.4 °F /  15.2 °C 48.7 °F /  9.3 °C 30in /  1016.6hPa East 2.9mph /  4.7km/h 3mph /  4.8km/h 68% 0in /  0.0mm 165 W/m2
12:10 59.5 °F /  15.3 °C 48.6 °F /  9.2 °C 30in /  1016.6hPa East 2mph /  3.2km/h 3mph /  4.8km/h 67% 0in /  0.0mm 366 W/m2
12:15 59.7 °F /  15.4 °C 48.7 °F /  9.3 °C 30in /  1016.6hPa NE 2mph /  3.2km/h 2mph /  3.2km/h 67% 0in /  0.0mm 359 W/m2
12:20 59.9 °F /  15.5 °C 49.3 °F /  9.6 °C 30in /  1016.6hPa Calm   2mph /  3.2km/h 68% 0in /  0.0mm 338 W/m2
12:25 60.3 °F /  15.7 °C 48.9 °F /  9.4 °C 30in /  1016.6hPa SE 2mph /  3.2km/h 3mph /  4.8km/h 66% 0in /  0.0mm 341 W/m2
12:30 60.4 °F /  15.8 °C 49.1 °F /  9.5 °C 30in /  1016.6hPa ENE 0.9mph /  1.4km/h 3mph /  4.8km/h 66% 0in /  0.0mm 327 W/m2
12:35 60.6 °F /  15.9 °C 49.3 °F /  9.6 °C 30in /  1016.6hPa ENE 2mph /  3.2km/h 3mph /  4.8km/h 66% 0in /  0.0mm 461 W/m2
12:40 61 °F /  16.1 °C 49.5 °F /  9.7 °C 30in /  1016.6hPa ENE 0.9mph /  1.4km/h 1mph /  1.6km/h 66% 0in /  0.0mm 489 W/m2
12:45 61 °F /  16.1 °C 49.1 °F /  9.5 °C 30in /  1016.3hPa ESE 0.9mph /  1.4km/h 5mph /  8km/h 65% 0in /  0.0mm 619 W/m2
12:50 61.2 °F /  16.2 °C 49.3 °F /  9.6 °C 30in /  1016.3hPa ESE 0.9mph /  1.4km/h 4mph /  6.4km/h 65% 0in /  0.0mm 554 W/m2
12:55 61.5 °F /  16.4 °C 49.6 °F /  9.8 °C 30in /  1016.3hPa NE 2mph /  3.2km/h 5mph /  8km/h 65% 0in /  0.0mm 647 W/m2
13:00 61.9 °F /  16.6 °C 49.6 °F /  9.8 °C 30in /  1016.3hPa East 0.9mph /  1.4km/h 3mph /  4.8km/h 64% 0in /  0.0mm 571 W/m2
13:05 62.4 °F /  16.9 °C 49.6 °F /  9.8 °C 30in /  1016.3hPa East 0.9mph /  1.4km/h 3mph /  4.8km/h 63% 0in /  0.0mm 729 W/m2
13:10 63.1 °F /  17.3 °C 49.8 °F /  9.9 °C 30in /  1016.3hPa NNE 0.9mph /  1.4km/h 3mph /  4.8km/h 62% 0in /  0.0mm 603 W/m2
13:16 63.7 °F /  17.6 °C 50.4 °F /  10.2 °C 30in /  1016.3hPa East 0.9mph /  1.4km/h 3mph /  4.8km/h 62% 0in /  0.0mm 411 W/m2
13:21 64 °F /  17.8 °C 49.8 °F /  9.9 °C 30in /  1016.3hPa ENE 2.9mph /  4.7km/h 3mph /  4.8km/h 60% 0in /  0.0mm 686 W/m2
13:26 64.6 °F /  18.1 °C 50.4 °F /  10.2 °C 30in /  1015.9hPa Calm   2mph /  3.2km/h 60% 0in /  0.0mm 694 W/m2
13:31 64.8 °F /  18.2 °C 50.2 °F /  10.1 °C 30in /  1015.9hPa East 2.9mph /  4.7km/h 4mph /  6.4km/h 59% 0in /  0.0mm 455 W/m2
13:36 64.8 °F /  18.2 °C 49.6 °F /  9.8 °C 30in /  1015.9hPa NE 2.9mph /  4.7km/h 5mph /  8km/h 58% 0in /  0.0mm 330 W/m2
13:41 64.8 °F /  18.2 °C 49.6 °F /  9.8 °C 30in /  1015.9hPa NE 2mph /  3.2km/h 3mph /  4.8km/h 58% 0in /  0.0mm 557 W/m2
13:46 64.9 °F /  18.3 °C 49.3 °F /  9.6 °C 30in /  1015.9hPa SE 2.9mph /  4.7km/h 5mph /  8km/h 57% 0in /  0.0mm 580 W/m2
13:51 64.9 °F /  18.3 °C 49.3 °F /  9.6 °C 30in /  1015.6hPa East 2.9mph /  4.7km/h 6mph /  9.7km/h 57% 0in /  0.0mm 645 W/m2
13:56 64.9 °F /  18.3 °C 48.9 °F /  9.4 °C 30in /  1015.6hPa Calm   2mph /  3.2km/h 56% 0in /  0.0mm 366 W/m2
14:01 64.9 °F /  18.3 °C 49.3 °F /  9.6 °C 30in /  1015.6hPa Calm   3mph /  4.8km/h 57% 0in /  0.0mm 306 W/m2
14:06 65.1 °F /  18.4 °C 49.5 °F /  9.7 °C 30in /  1015.6hPa ENE 2mph /  3.2km/h 4mph /  6.4km/h 57% 0in /  0.0mm 684 W/m2
14:11 64.9 °F /  18.3 °C 48.9 °F /  9.4 °C 30in /  1015.2hPa NNW 0.9mph /  1.4km/h 3mph /  4.8km/h 56% 0in /  0.0mm 680 W/m2
14:16 65.1 °F /  18.4 °C 49.5 °F /  9.7 °C 30in /  1015.2hPa SE 0.9mph /  1.4km/h 2mph /  3.2km/h 57% 0in /  0.0mm 478 W/m2
14:21 65.7 °F /  18.7 °C 49.1 °F /  9.5 °C 30in /  1015.6hPa Calm   2mph /  3.2km/h 55% 0in /  0.0mm 239 W/m2
14:26 65.7 °F /  18.7 °C 49.1 °F /  9.5 °C 30in /  1015.2hPa SE 0.9mph /  1.4km/h 2mph /  3.2km/h 55% 0in /  0.0mm 204 W/m2
14:31 65.7 °F /  18.7 °C 49.1 °F /  9.5 °C 30in /  1015.6hPa ENE 2mph /  3.2km/h 4mph /  6.4km/h 55% 0in /  0.0mm 193 W/m2
14:36 65.5 °F /  18.6 °C 49.3 °F /  9.6 °C 30in /  1015.6hPa Calm   1mph /  1.6km/h 56% 0in /  0.0mm 195 W/m2
14:41 65.5 °F /  18.6 °C 49.3 °F /  9.6 °C 30in /  1015.2hPa East 2.9mph /  4.7km/h 4mph /  6.4km/h 56% 0in /  0.0mm 185 W/m2
14:46 65.3 °F /  18.5 °C 49.3 °F /  9.6 °C 30in /  1015.2hPa East 0.9mph /  1.4km/h 1mph /  1.6km/h 56% 0in /  0.0mm 171 W/m2
14:51 65.1 °F /  18.4 °C 49.1 °F /  9.5 °C 30in /  1015.2hPa East 0.9mph /  1.4km/h 2mph /  3.2km/h 56% 0in /  0.0mm 172 W/m2
14:56 65.1 °F /  18.4 °C 49.1 °F /  9.5 °C 30in /  1015.6hPa East 2mph /  3.2km/h 2mph /  3.2km/h 56% 0in /  0.0mm 181 W/m2
15:01 64.9 °F /  18.3 °C 49.3 °F /  9.6 °C 30in /  1015.2hPa Calm   2mph /  3.2km/h 57% 0in /  0.0mm 190 W/m2
15:06 65.1 °F /  18.4 °C 50 °F /  10 °C 30in /  1015.2hPa Calm   1mph /  1.6km/h 58% 0in /  0.0mm 190 W/m2
15:11 65.1 °F /  18.4 °C 49.5 °F /  9.7 °C 30in /  1015.2hPa ENE 0.9mph /  1.4km/h 2mph /  3.2km/h 57% 0in /  0.0mm 186 W/m2
15:16 65.1 °F /  18.4 °C 49.1 °F /  9.5 °C 30in /  1015.2hPa East 0.9mph /  1.4km/h 2mph /  3.2km/h 56% 0in /  0.0mm 183 W/m2
15:21 65.1 °F /  18.4 °C 49.5 °F /  9.7 °C 30in /  1015.2hPa East 0.9mph /  1.4km/h 2mph /  3.2km/h 57% 0in /  0.0mm 176 W/m2
15:26 65.3 °F /  18.5 °C 47.7 °F /  8.7 °C 30in /  1015.2hPa WNW 2mph /  3.2km/h 4mph /  6.4km/h 53% 0in /  0.0mm 162 W/m2
15:31 65.1 °F /  18.4 °C 47.5 °F /  8.6 °C 30in /  1015.2hPa WSW 0.9mph /  1.4km/h 4mph /  6.4km/h 53% 0in /  0.0mm 149 W/m2
15:36 65.1 °F /  18.4 °C 47.1 °F /  8.4 °C 30in /  1014.9hPa Calm   1mph /  1.6km/h 52% 0in /  0.0mm 146 W/m2
15:41 65.1 °F /  18.4 °C 47.1 °F /  8.4 °C 30in /  1014.9hPa NW 0.9mph /  1.4km/h 4mph /  6.4km/h 52% 0in /  0.0mm 149 W/m2
15:46 65.1 °F /  18.4 °C 47.5 °F /  8.6 °C 30in /  1015.2hPa NW 0.9mph /  1.4km/h 1mph /  1.6km/h 53% 0in /  0.0mm 149 W/m2
15:51 64.9 °F /  18.3 °C 46.9 °F /  8.3 °C 30in /  1014.9hPa NW 0.9mph /  1.4km/h 3mph /  4.8km/h 52% 0in /  0.0mm 146 W/m2
15:56 64.9 °F /  18.3 °C 47.8 °F /  8.8 °C 30in /  1014.9hPa NW 0.9mph /  1.4km/h 2mph /  3.2km/h 54% 0in /  0.0mm 158 W/m2
16:01 64.9 °F /  18.3 °C 47.5 °F /  8.6 °C 30in /  1014.9hPa NW 0.9mph /  1.4km/h 3mph /  4.8km/h 53% 0in /  0.0mm 202 W/m2
16:06 64.9 °F /  18.3 °C 46.9 °F /  8.3 °C 30in /  1014.9hPa West 2mph /  3.2km/h 5mph /  8km/h 52% 0in /  0.0mm 207 W/m2
16:11 65.1 °F /  18.4 °C 47.5 °F /  8.6 °C 30in /  1014.9hPa Calm   1mph /  1.6km/h 53% 0in /  0.0mm 199 W/m2
16:16 65.1 °F /  18.4 °C 47.1 °F /  8.4 °C 30in /  1014.9hPa NW 2mph /  3.2km/h 3mph /  4.8km/h 52% 0in /  0.0mm 297 W/m2
16:21 65.3 °F /  18.5 °C 47.3 °F /  8.5 °C 30in /  1014.6hPa WNW 2.9mph /  4.7km/h 3mph /  4.8km/h 52% 0in /  0.0mm 285 W/m2
16:26 65.5 °F /  18.6 °C 46.9 °F /  8.3 °C 30in /  1014.6hPa NW 0.9mph /  1.4km/h 3mph /  4.8km/h 51% 0in /  0.0mm 220 W/m2
16:31 65.7 °F /  18.7 °C 47.5 °F /  8.6 °C 30in /  1014.9hPa Calm   1mph /  1.6km/h 52% 0in /  0.0mm 302 W/m2
16:36 65.7 °F /  18.7 °C 47.5 °F /  8.6 °C 30in /  1014.6hPa NNW 2.9mph /  4.7km/h 4mph /  6.4km/h 52% 0in /  0.0mm 250 W/m2
16:41 65.7 °F /  18.7 °C 47.5 °F /  8.6 °C 30in /  1014.6hPa West 2mph /  3.2km/h 4mph /  6.4km/h 52% 0in /  0.0mm 188 W/m2
16:46 65.7 °F /  18.7 °C 47.5 °F /  8.6 °C 30in /  1014.6hPa West 2mph /  3.2km/h 2mph /  3.2km/h 52% 0in /  0.0mm 146 W/m2
16:51 65.5 °F /  18.6 °C 46.9 °F /  8.3 °C 30in /  1014.6hPa Calm   3mph /  4.8km/h 51% 0in /  0.0mm 148 W/m2
16:56 65.3 °F /  18.5 °C 47.7 °F /  8.7 °C 30in /  1014.6hPa Calm   1mph /  1.6km/h 53% 0in /  0.0mm 167 W/m2
17:01 65.1 °F /  18.4 °C 47.5 °F /  8.6 °C 30in /  1014.6hPa West 0.9mph /  1.4km/h 2mph /  3.2km/h 53% 0in /  0.0mm 174 W/m2
17:06 65.1 °F /  18.4 °C 47.1 °F /  8.4 °C 30in /  1014.6hPa WSW 2.9mph /  4.7km/h 5mph /  8km/h 52% 0in /  0.0mm 162 W/m2
17:11 65.1 °F /  18.4 °C 47.5 °F /  8.6 °C 30in /  1014.6hPa WSW 2mph /  3.2km/h 4mph /  6.4km/h 53% 0in /  0.0mm 139 W/m2
17:16 64.9 °F /  18.3 °C 47.5 °F /  8.6 °C 30in /  1014.6hPa WNW 2mph /  3.2km/h 5mph /  8km/h 53% 0in /  0.0mm 125 W/m2
17:21 64.8 °F /  18.2 °C 47.3 °F /  8.5 °C 30in /  1014.6hPa WNW 0.9mph /  1.4km/h 2mph /  3.2km/h 53% 0in /  0.0mm 128 W/m2
17:26 64.8 °F /  18.2 °C 48.2 °F /  9 °C 30in /  1014.2hPa WNW 0.9mph /  1.4km/h 2mph /  3.2km/h 55% 0in /  0.0mm 130 W/m2
17:31 64.8 °F /  18.2 °C 47.7 °F /  8.7 °C 30in /  1014.2hPa WNW 2mph /  3.2km/h 3mph /  4.8km/h 54% 0in /  0.0mm 109 W/m2
17:36 64.8 °F /  18.2 °C 47.7 °F /  8.7 °C 30in /  1014.2hPa Calm   2mph /  3.2km/h 54% 0in /  0.0mm 132 W/m2
17:41 64.8 °F /  18.2 °C 47.7 °F /  8.7 °C 30in /  1014.2hPa Calm   3mph /  4.8km/h 54% 0in /  0.0mm 132 W/m2
17:46 64.8 °F /  18.2 °C 48.7 °F /  9.3 °C 30in /  1014.6hPa WNW 2.9mph /  4.7km/h 3mph /  4.8km/h 56% 0in /  0.0mm 155 W/m2
17:51 64.8 °F /  18.2 °C 48.7 °F /  9.3 °C 30in /  1014.2hPa Calm   1mph /  1.6km/h 56% 0in /  0.0mm 146 W/m2
17:56 64.8 °F /  18.2 °C 48.7 °F /  9.3 °C 30in /  1014.2hPa West 2.9mph /  4.7km/h 3mph /  4.8km/h 56% 0in /  0.0mm 135 W/m2
18:01 64.6 °F /  18.1 °C 48.9 °F /  9.4 °C 30in /  1014.2hPa West 2mph /  3.2km/h 4mph /  6.4km/h 57% 0in /  0.0mm 128 W/m2
18:06 64.6 °F /  18.1 °C 47.5 °F /  8.6 °C 30in /  1014.2hPa NW 0.9mph /  1.4km/h 4mph /  6.4km/h 54% 0in /  0.0mm 111 W/m2
18:11 64.4 °F /  18 °C 47.8 °F /  8.8 °C 30in /  1014.2hPa West 0.9mph /  1.4km/h 2mph /  3.2km/h 55% 0in /  0.0mm 86 W/m2
18:16 64.2 °F /  17.9 °C 48.2 °F /  9 °C 30in /  1014.2hPa WNW 2mph /  3.2km/h 2mph /  3.2km/h 56% 0in /  0.0mm 77 W/m2
18:21 64 °F /  17.8 °C 48.6 °F /  9.2 °C 30in /  1014.2hPa West 2mph /  3.2km/h 2mph /  3.2km/h 57% 0in /  0.0mm 69 W/m2
18:26 63.9 °F /  17.7 °C 48.7 °F /  9.3 °C 30in /  1014.2hPa West 2mph /  3.2km/h 2mph /  3.2km/h 58% 0in /  0.0mm 58 W/m2
18:31 63.3 °F /  17.4 °C 48.7 °F /  9.3 °C 30in /  1014.2hPa Calm   2mph /  3.2km/h 59% 0in /  0.0mm 49 W/m2
18:36 63.1 °F /  17.3 °C 49.1 °F /  9.5 °C 30in /  1014.2hPa West 2mph /  3.2km/h 2mph /  3.2km/h 60% 0in /  0.0mm 40 W/m2
18:41 63 °F /  17.2 °C 48.9 °F /  9.4 °C 30in /  1014.2hPa Calm   2mph /  3.2km/h 60% 0in /  0.0mm 39 W/m2
18:46 62.6 °F /  17 °C 48.9 °F /  9.4 °C 29.9in /  1013.9hPa Calm   2mph /  3.2km/h 61% 0in /  0.0mm 33 W/m2
18:51 62.2 °F /  16.8 °C 49.1 °F /  9.5 °C 29.9in /  1013.9hPa West 0.9mph /  1.4km/h 1mph /  1.6km/h 62% 0in /  0.0mm 26 W/m2
18:56 62.1 °F /  16.7 °C 49.3 °F /  9.6 °C 29.9in /  1013.9hPa West 0.9mph /  1.4km/h 3mph /  4.8km/h 63% 0in /  0.0mm 18 W/m2
19:01 61.7 °F /  16.5 °C 48.9 °F /  9.4 °C 29.9in /  1013.9hPa Calm   2mph /  3.2km/h 63% 0in /  0.0mm 14 W/m2
19:06 61.5 °F /  16.4 °C 48.7 °F /  9.3 °C 30in /  1014.2hPa West 0.9mph /  1.4km/h 3mph /  4.8km/h 63% 0in /  0.0mm 12 W/m2
19:11 61.3 °F /  16.3 °C 49.1 °F /  9.5 °C 30in /  1014.2hPa West 2mph /  3.2km/h 2mph /  3.2km/h 64% 0in /  0.0mm 11 W/m2
19:16 61.2 °F /  16.2 °C 48.9 °F /  9.4 °C 30in /  1014.2hPa Calm   1mph /  1.6km/h 64% 0in /  0.0mm 9 W/m2
19:21 61 °F /  16.1 °C 49.1 °F /  9.5 °C 30in /  1014.2hPa Calm   1mph /  1.6km/h 65% 0in /  0.0mm 7 W/m2
19:26 60.6 °F /  15.9 °C 48.7 °F /  9.3 °C 30in /  1014.2hPa Calm     65% 0in /  0.0mm 5 W/m2
19:31 60.4 °F /  15.8 °C 49.1 °F /  9.5 °C 29.9in /  1013.9hPa Calm   1mph /  1.6km/h 66% 0in /  0.0mm 0 W/m2
19:36 60.3 °F /  15.7 °C 48.9 °F /  9.4 °C 29.9in /  1013.9hPa Calm     66% 0in /  0.0mm 0 W/m2
19:41 60.1 °F /  15.6 °C 49.1 °F /  9.5 °C 29.9in /  1013.9hPa Calm     67% 0in /  0.0mm 0 W/m2
19:46 59.5 °F /  15.3 °C 48.6 °F /  9.2 °C 29.9in /  1013.9hPa Calm     67% 0in /  0.0mm 0 W/m2
19:51 59.4 °F /  15.2 °C 48.7 °F /  9.3 °C 29.9in /  1013.9hPa Calm     68% 0in /  0.0mm 0 W/m2
19:56 58.8 °F /  14.9 °C 48.2 °F /  9 °C 30in /  1014.2hPa WSW 0.9mph /  1.4km/h 1mph /  1.6km/h 68% 0in /  0.0mm 0 W/m2
20:02 58.6 °F /  14.8 °C 48.6 °F /  9.2 °C 29.9in /  1013.9hPa Calm     69% 0in /  0.0mm 0 W/m2
20:07 58.5 °F /  14.7 °C 48.4 °F /  9.1 °C 29.9in /  1013.9hPa Calm     69% 0in /  0.0mm 0 W/m2
20:12 58.1 °F /  14.5 °C 48 °F /  8.9 °C 30in /  1014.2hPa Calm     69% 0in /  0.0mm 0 W/m2
20:17 57.9 °F /  14.4 °C 47.8 °F /  8.8 °C 30in /  1014.2hPa Calm     69% 0in /  0.0mm 0 W/m2
20:22 57.7 °F /  14.3 °C 47.7 °F /  8.7 °C 30in /  1014.2hPa Calm     69% 0in /  0.0mm 0 W/m2
20:27 57.6 °F /  14.2 °C 47.8 °F /  8.8 °C 30in /  1014.2hPa Calm     70% 0in /  0.0mm 0 W/m2
20:32 57.4 °F /  14.1 °C 47.7 °F /  8.7 °C 30in /  1014.2hPa Calm     70% 0in /  0.0mm 0 W/m2
20:37 57 °F /  13.9 °C 47.7 °F /  8.7 °C 30in /  1014.2hPa Calm     71% 0in /  0.0mm 0 W/m2
20:42 56.8 °F /  13.8 °C 47.5 °F /  8.6 °C 30in /  1014.2hPa Calm     71% 0in /  0.0mm 0 W/m2
20:47 56.8 °F /  13.8 °C 47.5 °F /  8.6 °C 29.9in /  1013.9hPa Calm     71% 0in /  0.0mm 0 W/m2
20:52 56.7 °F /  13.7 °C 47.7 °F /  8.7 °C 29.9in /  1013.9hPa Calm     72% 0in /  0.0mm 0 W/m2
20:57 56.5 °F /  13.6 °C 47.5 °F /  8.6 °C 29.9in /  1013.9hPa Calm     72% 0in /  0.0mm 0 W/m2
21:02 56.3 °F /  13.5 °C 47.5 °F /  8.6 °C 29.9in /  1013.9hPa Calm     72% 0in /  0.0mm 0 W/m2
21:07 56.1 °F /  13.4 °C 47.7 °F /  8.7 °C 29.9in /  1013.9hPa Calm     73% 0in /  0.0mm 0 W/m2
21:12 55.9 °F /  13.3 °C 47.5 °F /  8.6 °C 29.9in /  1013.9hPa Calm     73% 0in /  0.0mm 0 W/m2
21:17 55.8 °F /  13.2 °C 47.7 °F /  8.7 °C 29.9in /  1013.9hPa Calm     74% 0in /  0.0mm 0 W/m2
21:22 55.8 °F /  13.2 °C 48 °F /  8.9 °C 29.9in /  1013.9hPa Calm     75% 0in /  0.0mm 0 W/m2
21:27 55.6 °F /  13.1 °C 47.8 °F /  8.8 °C 29.9in /  1013.9hPa Calm     75% 0in /  0.0mm 0 W/m2
21:32 55.6 °F /  13.1 °C 47.8 °F /  8.8 °C 29.9in /  1013.9hPa Calm     75% 0in /  0.0mm 0 W/m2
21:37 55.4 °F /  13 °C 48 °F /  8.9 °C 29.9in /  1013.9hPa Calm     76% 0in /  0.0mm 0 W/m2
21:42 55.2 °F /  12.9 °C 47.8 °F /  8.8 °C 29.9in /  1013.9hPa Calm     76% 0in /  0.0mm 0 W/m2
21:47 55.2 °F /  12.9 °C 47.8 °F /  8.8 °C 29.9in /  1013.9hPa Calm     76% 0in /  0.0mm 0 W/m2
21:52 55.2 °F /  12.9 °C 47.5 °F /  8.6 °C 29.9in /  1013.9hPa Calm     75% 0in /  0.0mm 0 W/m2
21:57 55 °F /  12.8 °C 47.7 °F /  8.7 °C 29.9in /  1013.9hPa Calm   1mph /  1.6km/h 76% 0in /  0.0mm 0 W/m2
22:02 55 °F /  12.8 °C 47.3 °F /  8.5 °C 29.9in /  1013.5hPa Calm     75% 0in /  0.0mm 0 W/m2
22:07 54.9 °F /  12.7 °C 47.5 °F /  8.6 °C 29.9in /  1013.5hPa Calm     76% 0in /  0.0mm 0 W/m2
22:12 54.9 °F /  12.7 °C 47.5 °F /  8.6 °C 29.9in /  1013.5hPa Calm     76% 0in /  0.0mm 0 W/m2
22:17 54.7 °F /  12.6 °C 47.3 °F /  8.5 °C 29.9in /  1013.5hPa Calm   1mph /  1.6km/h 76% 0in /  0.0mm 0 W/m2
22:22 54.3 °F /  12.4 °C 46.9 °F /  8.3 °C 29.9in /  1013.5hPa Calm     76% 0in /  0.0mm 0 W/m2
22:27 54.1 °F /  12.3 °C 47.1 °F /  8.4 °C 29.9in /  1013.5hPa WSW 0.9mph /  1.4km/h 1mph /  1.6km/h 77% 0in /  0.0mm 0 W/m2
22:32 54 °F /  12.2 °C 46.9 °F /  8.3 °C 29.9in /  1013.5hPa Calm     77% 0in /  0.0mm 0 W/m2
22:37 53.8 °F /  12.1 °C 46.8 °F /  8.2 °C 29.9in /  1013.5hPa Calm     77% 0in /  0.0mm 0 W/m2
22:42 53.6 °F /  12 °C 46.6 °F /  8.1 °C 29.9in /  1013.5hPa Calm     77% 0in /  0.0mm 0 W/m2
22:47 53.4 °F /  11.9 °C 46.4 °F /  8 °C 29.9in /  1013.5hPa Calm     77% 0in /  0.0mm 0 W/m2
22:52 53.2 °F /  11.8 °C 46.6 °F /  8.1 °C 29.9in /  1013.5hPa Calm     78% 0in /  0.0mm 0 W/m2
22:57 53.1 °F /  11.7 °C 46.4 °F /  8 °C 29.9in /  1013.5hPa Calm     78% 0in /  0.0mm 0 W/m2
23:02 52.9 °F /  11.6 °C 46.6 °F /  8.1 °C 29.9in /  1013.5hPa Calm     79% 0in /  0.0mm 0 W/m2
23:07 52.5 °F /  11.4 °C 46.2 °F /  7.9 °C 29.9in /  1013.5hPa Calm   1mph /  1.6km/h 79% 0in /  0.0mm 0 W/m2
23:12 52.2 °F /  11.2 °C 46.2 °F /  7.9 °C 29.9in /  1013.5hPa Calm   1mph /  1.6km/h 80% 0in /  0.0mm 0 W/m2
23:17 52 °F /  11.1 °C 46 °F /  7.8 °C 29.9in /  1013.5hPa Calm     80% 0in /  0.0mm 0 W/m2
23:22 52 °F /  11.1 °C 46 °F /  7.8 °C 29.9in /  1013.5hPa Calm     80% 0in /  0.0mm 0 W/m2
23:27 51.6 °F /  10.9 °C 45.7 °F /  7.6 °C 29.9in /  1013.5hPa Calm     80% 0in /  0.0mm 0 W/m2
23:32 51.4 °F /  10.8 °C 45.5 °F /  7.5 °C 29.9in /  1013.5hPa Calm     80% 0in /  0.0mm 0 W/m2
23:37 51.3 °F /  10.7 °C 45.7 °F /  7.6 °C 29.9in /  1013.5hPa Calm     81% 0in /  0.0mm 0 W/m2
23:42 51.1 °F /  10.6 °C 45.9 °F /  7.7 °C 29.9in /  1013.5hPa Calm     82% 0in /  0.0mm 0 W/m2
23:47 50.9 °F /  10.5 °C 45.7 °F /  7.6 °C 29.9in /  1013.5hPa Calm     82% 0in /  0.0mm 0 W/m2
23:52 50.7 °F /  10.4 °C 45.7 °F /  7.6 °C 29.9in /  1013.5hPa Calm     83% 0in /  0.0mm 0 W/m2
23:57 50.5 °F /  10.3 °C 45.5 °F /  7.5 °C 29.9in /  1013.5hPa Calm     83% 0in /  0.0mm 0 W/m2
Juneau County Weather
Compliments of Weather Underground - 4 mb